This is the latest recevied weather packets stored in our database for station/object IZ5MJO-13. If no packets are shown the sender has not sent any weather packets the latest 10 day(s).
| Time | Temp. | Humidity | Pressure | Rain* | Wind** | Luminosity | Snow |
|---|---|---|---|---|---|---|---|
| 1777614216 | 10° C | 40% | 1012.8 hPa | - | - | - | - |
| 1777613316 | 9.44° C | 42% | 1012.8 hPa | - | - | - | - |
| 1777612416 | 8.33° C | 42% | 1012.9 hPa | - | - | - | - |
| 1777611516 | 8.33° C | 42% | 1012.6 hPa | - | - | - | - |
| 1777610615 | 8.33° C | 40% | 1012.6 hPa | - | - | - | - |
| 1777609715 | 8.33° C | 41% | 1012.5 hPa | - | - | - | - |
| 1777608815 | 7.78° C | 40% | 1012.4 hPa | - | - | - | - |
| 1777607915 | 7.78° C | 40% | 1012.4 hPa | - | - | - | - |
| 1777607015 | 7.78° C | 38% | 1012.4 hPa | - | - | - | - |
| 1777606114 | 7.78° C | 40% | 1012.4 hPa | - | - | - | - |
| 1777605214 | 7.78° C | 38% | 1012.1 hPa | - | - | - | - |
| 1777604314 | 7.22° C | 37% | 1012.1 hPa | - | - | - | - |
| 1777603414 | 7.78° C | 38% | 1012.3 hPa | - | - | - | - |
| 1777602513 | 8.33° C | 38% | 1012.2 hPa | - | - | - | - |
| 1777601618 | 8.33° C | 37% | 1012.4 hPa | - | - | - | - |
| 1777600718 | 8.33° C | 38% | 1012.4 hPa | - | - | - | - |
| 1777599818 | 8.33° C | 39% | 1012.3 hPa | - | - | - | - |
| 1777598917 | 8.89° C | 39% | 1012.4 hPa | - | - | - | - |
| 1777598017 | 8.33° C | 39% | 1012.3 hPa | - | - | - | - |
| 1777597117 | 8.89° C | 38% | 1012.2 hPa | - | - | - | - |
| 1777596216 | 8.89° C | 39% | 1012.1 hPa | - | - | - | - |
| 1777595423 | 10.56° C | 31% | 1011.2 hPa | - | - | - | - |
| 1777595316 | 8.89° C | 39% | 1012.2 hPa | - | - | - | - |
| 1777594416 | 8.33° C | 38% | 1012 hPa | - | - | - | - |
| 1777593515 | 8.33° C | 38% | 1012 hPa | - | - | - | - |
* Rain since midnight (hover to see other rain measurements)
** Current wind speed in m/s (hover to see current wind gust speed)